createdAt,value
2018-12-06T00:01:16.681Z,89.40
2018-12-06T00:03:46.026Z,90.40
2018-12-06T00:06:15.640Z,90.70
2018-12-06T00:08:44.948Z,91.00
2018-12-06T00:11:14.250Z,91.00
2018-12-06T00:13:43.551Z,91.30
2018-12-06T00:16:13.071Z,91.50
2018-12-06T00:18:42.612Z,92.10
2018-12-06T00:21:12.181Z,91.80
2018-12-06T00:23:41.660Z,91.00
2018-12-06T00:26:10.934Z,91.80
2018-12-06T00:28:40.233Z,90.80
2018-12-06T00:31:09.521Z,90.80
2018-12-06T00:33:38.864Z,90.60
2018-12-06T00:36:08.175Z,91.00
2018-12-06T00:38:37.508Z,90.90
2018-12-06T00:41:06.807Z,91.00
2018-12-06T00:43:36.116Z,91.00
2018-12-06T00:46:05.413Z,91.10
2018-12-06T00:48:34.941Z,91.00
2018-12-06T00:51:04.245Z,91.40
2018-12-06T00:53:34.460Z,91.30
2018-12-06T00:56:04.770Z,91.40
2018-12-06T00:58:34.555Z,92.00
2018-12-06T01:01:03.858Z,91.40
2018-12-06T01:03:33.177Z,91.20
2018-12-06T01:06:02.541Z,91.00
2018-12-06T01:08:32.086Z,91.80
2018-12-06T01:11:01.426Z,92.40
2018-12-06T01:13:31.168Z,92.40
2018-12-06T01:16:00.701Z,92.70
2018-12-06T01:18:30.007Z,92.70
2018-12-06T01:20:59.290Z,92.90
2018-12-06T01:23:28.627Z,93.30
2018-12-06T01:25:57.906Z,94.10
2018-12-06T01:28:27.238Z,95.00
2018-12-06T01:30:56.537Z,95.20
2018-12-06T01:33:26.093Z,95.70
2018-12-06T01:35:55.630Z,95.80
2018-12-06T01:38:25.849Z,95.80
2018-12-06T01:40:55.704Z,96.00
2018-12-06T01:43:25.824Z,96.10
2018-12-06T01:45:55.359Z,95.80
2018-12-06T01:48:25.183Z,95.90
2018-12-06T01:50:54.968Z,95.30
2018-12-06T01:53:24.557Z,95.20
2018-12-06T01:55:54.100Z,95.10
2018-12-06T01:58:23.385Z,95.20
2018-12-06T02:00:52.662Z,95.20
2018-12-06T02:03:21.953Z,95.70
2018-12-06T02:05:52.218Z,95.70
2018-12-06T02:08:21.514Z,95.40
2018-12-06T02:10:51.109Z,95.80
2018-12-06T02:13:20.390Z,97.00
2018-12-06T02:15:50.136Z,97.20
2018-12-06T02:18:19.419Z,97.60
2018-12-06T02:20:48.732Z,98.10
2018-12-06T02:23:18.172Z,98.20
2018-12-06T02:25:48.399Z,98.30
2018-12-06T02:28:17.730Z,98.30
2018-12-06T02:30:47.064Z,98.40
2018-12-06T02:33:16.450Z,98.80
2018-12-06T02:35:46.119Z,98.80
2018-12-06T02:38:16.421Z,99.00
2018-12-06T02:40:45.766Z,99.00
2018-12-06T02:43:15.079Z,99.00
2018-12-06T02:45:45.679Z,99.00
2018-12-06T02:48:14.990Z,99.00
2018-12-06T02:50:44.449Z,99.10
2018-12-06T02:53:14.304Z,99.10
2018-12-06T02:55:43.665Z,99.00
2018-12-06T02:58:12.976Z,99.20
2018-12-06T03:00:42.322Z,99.20
2018-12-06T03:03:11.868Z,99.20
2018-12-06T03:05:41.197Z,99.20
2018-12-06T03:08:10.480Z,99.80
2018-12-06T03:10:39.766Z,99.90
2018-12-06T03:13:09.046Z,99.90
2018-12-06T03:15:39.932Z,99.90
2018-12-06T03:18:09.197Z,99.90
2018-12-06T03:20:38.784Z,99.90
2018-12-06T03:23:08.105Z,99.90
2018-12-06T03:25:37.386Z,99.90
2018-12-06T03:28:06.777Z,99.90
2018-12-06T03:30:36.347Z,99.90
2018-12-06T03:33:05.688Z,99.90
2018-12-06T03:35:35.383Z,99.90
2018-12-06T03:38:04.691Z,99.90
2018-12-06T03:40:34.816Z,99.90
2018-12-06T03:43:04.191Z,99.90
2018-12-06T03:45:33.467Z,99.90
2018-12-06T03:48:02.792Z,99.90
2018-12-06T03:50:32.071Z,99.90
2018-12-06T03:53:02.235Z,99.90
2018-12-06T03:55:31.913Z,99.90
2018-12-06T03:58:01.441Z,99.90
2018-12-06T04:00:30.790Z,99.90
2018-12-06T04:03:00.498Z,99.90
2018-12-06T04:05:30.279Z,99.90
2018-12-06T04:07:59.550Z,99.90
2018-12-06T04:10:30.590Z,99.90
2018-12-06T04:13:00.007Z,99.90
2018-12-06T04:15:29.680Z,99.90
2018-12-06T04:17:58.970Z,99.90
2018-12-06T04:20:28.713Z,99.90
2018-12-06T04:22:58.392Z,99.90
2018-12-06T04:25:27.666Z,99.90
2018-12-06T04:27:57.002Z,99.90
2018-12-06T04:30:26.978Z,99.90
2018-12-06T04:32:56.587Z,99.90
2018-12-06T04:35:26.336Z,99.90
2018-12-06T04:37:56.054Z,99.90
2018-12-06T04:40:26.172Z,99.90
2018-12-06T04:42:55.485Z,99.90
2018-12-06T04:45:24.830Z,99.90
2018-12-06T04:47:54.535Z,99.90
2018-12-06T04:50:24.207Z,99.90
2018-12-06T04:52:54.297Z,99.90
2018-12-06T04:55:23.584Z,99.90
2018-12-06T04:57:53.164Z,99.90
2018-12-06T05:00:24.333Z,99.90
2018-12-06T05:02:53.705Z,99.90
2018-12-06T05:05:24.300Z,99.90
2018-12-06T05:07:53.594Z,99.90
2018-12-06T05:10:23.730Z,99.90
2018-12-06T05:12:53.192Z,99.90
2018-12-06T05:15:22.798Z,99.90
2018-12-06T05:17:52.251Z,99.90
2018-12-06T05:20:21.528Z,99.90
2018-12-06T05:22:50.892Z,99.90
2018-12-06T05:25:20.423Z,99.90
2018-12-06T05:27:49.743Z,99.90
2018-12-06T05:30:18.931Z,99.90
2018-12-06T05:32:48.222Z,99.90
2018-12-06T05:35:18.010Z,99.90
2018-12-06T05:37:47.524Z,99.90
2018-12-06T05:40:16.909Z,99.90
2018-12-06T05:42:47.477Z,97.20
2018-12-06T05:45:16.948Z,94.70
2018-12-06T05:47:46.219Z,94.70
2018-12-06T05:50:16.091Z,97.80
2018-12-06T05:52:45.375Z,98.00
2018-12-06T05:55:14.720Z,99.40
2018-12-06T05:57:44.042Z,99.90
2018-12-06T06:00:13.638Z,99.90
2018-12-06T06:02:43.497Z,99.90
2018-12-06T06:05:18.720Z,99.90
2018-12-06T06:07:48.184Z,99.90
2018-12-06T06:10:17.741Z,99.90
2018-12-06T06:12:47.324Z,99.90
2018-12-06T06:15:16.482Z,99.90
2018-12-06T06:17:45.854Z,99.90
2018-12-06T06:20:15.258Z,99.90
2018-12-06T06:22:44.524Z,99.90
2018-12-06T06:25:13.858Z,99.90
2018-12-06T06:27:43.138Z,99.90
2018-12-06T06:30:12.349Z,99.90
2018-12-06T06:32:41.735Z,99.90
2018-12-06T06:35:11.076Z,99.90
2018-12-06T06:37:40.400Z,99.90
2018-12-06T06:40:09.955Z,99.90
2018-12-06T06:42:39.573Z,99.90
2018-12-06T06:45:08.764Z,99.90
2018-12-06T06:47:38.462Z,99.90
2018-12-06T06:50:08.199Z,99.90
2018-12-06T06:52:37.682Z,99.90
2018-12-06T06:55:07.337Z,99.90
2018-12-06T06:57:36.631Z,99.90
2018-12-06T07:00:07.309Z,99.90
2018-12-06T07:02:36.622Z,99.90
2018-12-06T07:05:06.649Z,99.90
2018-12-06T07:07:36.197Z,99.90
2018-12-06T07:10:07.858Z,99.90
2018-12-06T07:12:37.093Z,99.90
2018-12-06T07:15:08.182Z,99.90
2018-12-06T07:17:38.386Z,99.90
2018-12-06T07:20:08.376Z,99.90
2018-12-06T07:22:37.700Z,99.90
2018-12-06T07:25:08.605Z,99.90
2018-12-06T07:27:39.651Z,99.90
2018-12-06T07:30:12.477Z,99.90
2018-12-06T07:32:41.006Z,99.90
2018-12-06T07:35:12.240Z,99.90
2018-12-06T07:37:42.932Z,99.90
2018-12-06T07:40:15.831Z,99.90
2018-12-06T07:42:45.146Z,99.90
2018-12-06T07:45:14.774Z,99.90
2018-12-06T07:47:46.724Z,99.90
2018-12-06T07:50:16.251Z,99.90
2018-12-06T07:52:45.530Z,99.90
2018-12-06T07:55:14.817Z,99.90
2018-12-06T07:57:44.103Z,99.90
2018-12-06T08:00:13.727Z,99.90
2018-12-06T08:02:44.047Z,99.90
2018-12-06T08:05:14.102Z,99.90
2018-12-06T08:07:43.831Z,99.90
2018-12-06T08:10:13.593Z,99.90
2018-12-06T08:12:43.617Z,99.90
2018-12-06T08:15:12.842Z,99.90
2018-12-06T08:17:42.170Z,99.90
2018-12-06T08:20:11.833Z,99.90
2018-12-06T08:22:41.160Z,99.90
2018-12-06T08:25:10.976Z,99.90
2018-12-06T08:27:40.548Z,99.90
2018-12-06T08:30:10.271Z,99.90
2018-12-06T08:32:39.805Z,99.90
2018-12-06T08:35:10.057Z,99.90
2018-12-06T08:37:39.695Z,99.90
2018-12-06T08:40:10.216Z,99.90
2018-12-06T08:42:45.592Z,99.90
2018-12-06T08:45:10.955Z,99.90
2018-12-06T08:47:41.056Z,99.70
2018-12-06T08:50:13.838Z,97.40
2018-12-06T08:52:43.540Z,94.30
2018-12-06T08:55:17.980Z,93.90
2018-12-06T08:57:47.271Z,94.30
2018-12-06T09:00:16.452Z,94.40
2018-12-06T09:02:48.621Z,93.70
2018-12-06T09:05:18.701Z,92.90
2018-12-06T09:07:48.135Z,93.30
2018-12-06T09:10:18.705Z,93.00
2018-12-06T09:13:32.402Z,93.70
2018-12-06T09:16:01.656Z,93.00
2018-12-06T09:18:32.960Z,93.00
2018-12-06T09:21:02.855Z,93.00
2018-12-06T09:23:32.240Z,93.00
2018-12-06T09:26:01.740Z,93.00
2018-12-06T09:28:31.974Z,93.00
2018-12-06T09:31:01.414Z,93.00
2018-12-06T09:33:30.919Z,93.20
2018-12-06T09:36:00.247Z,93.90
2018-12-06T09:38:29.987Z,93.90
2018-12-06T09:40:59.336Z,93.90
2018-12-06T09:43:29.327Z,94.60
2018-12-06T09:46:00.367Z,95.30
2018-12-06T09:48:29.635Z,95.50
2018-12-06T09:51:00.850Z,95.30
2018-12-06T09:53:30.527Z,95.20
2018-12-06T09:56:00.796Z,93.20
2018-12-06T09:58:30.101Z,93.20
2018-12-06T10:01:00.942Z,93.50
2018-12-06T10:03:30.760Z,92.10
2018-12-06T10:06:00.234Z,91.20
2018-12-06T10:08:29.599Z,90.10
2018-12-06T10:10:58.945Z,87.40
2018-12-06T10:13:28.253Z,82.70
2018-12-06T10:15:58.106Z,77.90
2018-12-06T10:18:27.513Z,78.40
2018-12-06T10:20:56.829Z,70.50
2018-12-06T10:23:26.207Z,75.50
2018-12-06T10:25:55.509Z,77.00
2018-12-06T10:28:26.251Z,72.90
2018-12-06T10:30:55.582Z,81.50
2018-12-06T10:33:24.863Z,79.50
2018-12-06T10:35:54.199Z,76.60
2018-12-06T10:38:23.495Z,72.50
2018-12-06T10:40:53.549Z,76.80
2018-12-06T10:43:22.868Z,74.60
2018-12-06T10:45:52.189Z,62.40
2018-12-06T10:48:21.823Z,62.20
2018-12-06T10:50:51.130Z,62.50
2018-12-06T10:53:20.958Z,62.20
2018-12-06T10:55:54.034Z,60.20
2018-12-06T10:58:23.598Z,64.40
2018-12-06T11:00:59.348Z,63.50
2018-12-06T11:03:35.851Z,60.70
2018-12-06T11:06:05.330Z,60.20
2018-12-06T11:08:38.689Z,60.60
2018-12-06T11:11:08.101Z,62.70
2018-12-06T11:13:37.448Z,59.60
2018-12-06T11:16:06.775Z,57.10
2018-12-06T11:18:36.082Z,56.50
2018-12-06T11:21:05.407Z,55.50
2018-12-06T11:23:34.699Z,54.70
2018-12-06T11:26:04.388Z,59.70
2018-12-06T11:28:33.666Z,60.20
2018-12-06T11:31:02.922Z,59.60
2018-12-06T11:33:37.754Z,60.20
2018-12-06T11:36:07.130Z,55.50
2018-12-06T11:38:38.904Z,59.70
2018-12-06T11:41:08.852Z,59.40
2018-12-06T11:43:38.662Z,60.20
2018-12-06T11:46:07.969Z,59.40
2018-12-06T11:48:37.268Z,62.80
2018-12-06T11:51:06.843Z,59.40
2018-12-06T11:53:36.201Z,56.00
2018-12-06T11:56:13.183Z,57.00
2018-12-06T11:58:42.850Z,56.40
2018-12-06T12:01:12.543Z,57.70
2018-12-06T12:03:41.858Z,63.10
2018-12-06T12:06:11.217Z,67.10
2018-12-06T12:08:41.882Z,79.80
2018-12-06T12:11:11.378Z,77.50
2018-12-06T12:13:40.660Z,81.40
2018-12-06T12:16:10.246Z,74.00
2018-12-06T12:18:40.576Z,73.80
2018-12-06T12:21:10.020Z,74.80
2018-12-06T12:23:39.358Z,68.50
2018-12-06T12:26:08.678Z,59.70
2018-12-06T12:28:38.014Z,53.80
2018-12-06T12:31:07.329Z,53.90
2018-12-06T12:33:36.661Z,56.40
2018-12-06T12:36:05.998Z,57.10
2018-12-06T12:38:35.786Z,51.70
2018-12-06T12:41:19.975Z,48.60
2018-12-06T12:43:50.417Z,51.30
2018-12-06T12:46:25.641Z,51.20
2018-12-06T12:48:55.001Z,45.30
2018-12-06T12:51:25.759Z,24.30
2018-12-06T12:53:56.021Z,11.30
2018-12-06T12:56:25.286Z,11.90
2018-12-06T12:58:55.254Z,14.00
2018-12-06T13:01:24.631Z,17.00
2018-12-06T13:03:54.317Z,20.60
2018-12-06T13:06:24.338Z,24.80
2018-12-06T13:08:53.915Z,21.50
2018-12-06T13:11:23.278Z,23.00
2018-12-06T13:13:53.192Z,27.10
2018-12-06T13:16:22.810Z,24.80
2018-12-06T13:18:53.096Z,14.40
2018-12-06T13:21:22.857Z,10.70
2018-12-06T13:23:52.439Z,10.80
2018-12-06T13:26:21.801Z,12.00
2018-12-06T13:28:51.342Z,16.10
2018-12-06T13:31:20.649Z,19.60
2018-12-06T13:33:53.367Z,13.00
2018-12-06T13:36:25.207Z,4.50
2018-12-06T13:38:55.182Z,13.20
2018-12-06T13:41:24.531Z,14.60
2018-12-06T13:43:54.294Z,12.10
2018-12-06T13:46:24.361Z,8.80
2018-12-06T13:48:59.527Z,1.30
2018-12-06T13:51:30.361Z,5.40
2018-12-06T13:54:01.005Z,3.60
2018-12-06T13:56:30.986Z,5.80
2018-12-06T13:59:00.474Z,4.30
2018-12-06T14:01:29.781Z,4.30
2018-12-06T14:03:59.542Z,6.40
2018-12-06T14:06:28.892Z,4.90
2018-12-06T14:08:58.199Z,4.90
2018-12-06T14:11:29.674Z,3.20
2018-12-06T14:13:59.618Z,6.30
2018-12-06T14:16:30.751Z,6.20
2018-12-06T14:19:04.712Z,7.70
2018-12-06T14:21:34.006Z,1.90
2018-12-06T14:24:03.317Z,5.50
2018-12-06T14:26:32.619Z,1.20
2018-12-06T14:29:01.978Z,3.20
2018-12-06T14:31:31.619Z,1.00
2018-12-06T14:34:01.142Z,4.30
2018-12-06T14:36:30.986Z,4.90
2018-12-06T14:39:00.379Z,3.90
2018-12-06T14:41:29.903Z,8.10
2018-12-06T14:44:04.177Z,10.30
2018-12-06T14:46:33.449Z,5.50
2018-12-06T14:49:02.821Z,8.40
2018-12-06T14:51:32.201Z,8.90
2018-12-06T14:54:01.577Z,10.60
2018-12-06T14:56:33.371Z,8.00
2018-12-06T14:59:03.851Z,8.70
2018-12-06T15:01:36.649Z,9.80
2018-12-06T15:04:08.248Z,8.30
2018-12-06T15:06:37.940Z,13.10
2018-12-06T15:09:09.548Z,8.40
2018-12-06T15:11:38.866Z,12.40
2018-12-06T15:14:08.204Z,7.00
2018-12-06T15:16:37.969Z,8.40
2018-12-06T15:19:08.611Z,11.30
2018-12-06T15:21:37.993Z,9.40
2018-12-06T15:24:08.213Z,13.40
2018-12-06T15:26:37.755Z,10.80
2018-12-06T15:29:07.369Z,11.70
2018-12-06T15:31:37.080Z,13.70
2018-12-06T15:34:06.509Z,14.90
2018-12-06T15:36:35.873Z,14.90
2018-12-06T15:39:08.821Z,15.40
2018-12-06T15:41:39.355Z,16.10
2018-12-06T15:44:10.025Z,15.00
2018-12-06T15:46:39.665Z,19.00
2018-12-06T15:49:09.303Z,15.00
2018-12-06T15:51:38.997Z,13.60
2018-12-06T15:54:08.323Z,13.10
2018-12-06T15:56:37.766Z,17.50
2018-12-06T15:59:07.099Z,17.70
2018-12-06T16:01:36.657Z,18.00
2018-12-06T16:04:06.213Z,18.20
2018-12-06T16:06:35.623Z,21.10
2018-12-06T16:09:07.492Z,22.80
2018-12-06T16:11:38.435Z,20.90
2018-12-06T16:14:07.785Z,24.60
2018-12-06T16:16:37.266Z,23.10
2018-12-06T16:19:06.605Z,24.50
2018-12-06T16:21:37.096Z,23.90
2018-12-06T16:24:06.918Z,24.40
2018-12-06T16:26:36.343Z,24.00
2018-12-06T16:29:06.019Z,25.30
2018-12-06T16:31:38.032Z,24.40
2018-12-06T16:34:07.433Z,26.70
2018-12-06T16:36:36.733Z,24.80
2018-12-06T16:39:08.350Z,24.80
2018-12-06T16:41:38.095Z,27.60
2018-12-06T16:44:07.841Z,31.10
2018-12-06T16:46:37.742Z,34.60
2018-12-06T16:49:10.266Z,32.10
2018-12-06T16:51:38.395Z,34.90
2018-12-06T16:54:07.843Z,33.50
2018-12-06T16:56:37.179Z,32.90
2018-12-06T16:59:06.926Z,33.00
2018-12-06T17:01:36.915Z,34.20
2018-12-06T17:04:07.728Z,37.70
2018-12-06T17:06:37.405Z,35.90
2018-12-06T17:09:07.976Z,36.20
2018-12-06T17:11:38.430Z,38.50
2018-12-06T17:14:07.768Z,39.10
2018-12-06T17:16:40.024Z,40.30
2018-12-06T17:19:09.400Z,38.80
2018-12-06T17:21:38.772Z,38.40
2018-12-06T17:24:08.282Z,39.50
2018-12-06T17:26:38.197Z,36.70
2018-12-06T17:29:07.562Z,39.70
2018-12-06T17:31:36.925Z,40.90
2018-12-06T17:34:06.780Z,42.90
2018-12-06T17:36:36.696Z,45.80
2018-12-06T17:39:08.432Z,45.60
2018-12-06T17:41:43.590Z,45.90
2018-12-06T17:44:12.983Z,44.90
2018-12-06T17:46:42.290Z,45.70
2018-12-06T17:49:12.907Z,45.90
2018-12-06T17:51:43.518Z,47.60
2018-12-06T17:54:13.721Z,51.30
2018-12-06T17:56:43.137Z,50.60
2018-12-06T17:59:13.315Z,50.10
2018-12-06T18:01:43.870Z,48.30
2018-12-06T18:04:13.429Z,50.60
2018-12-06T18:06:44.644Z,51.70
2018-12-06T18:09:14.227Z,50.60
2018-12-06T18:11:44.543Z,50.60
2018-12-06T18:14:14.872Z,53.10
2018-12-06T18:16:44.185Z,51.50
2018-12-06T18:19:13.572Z,50.60
2018-12-06T18:21:43.218Z,50.60
2018-12-06T18:24:18.606Z,48.50
2018-12-06T18:26:44.499Z,46.00
2018-12-06T18:29:13.790Z,45.40
2018-12-06T18:31:44.994Z,45.10
2018-12-06T18:34:15.171Z,43.00
2018-12-06T18:36:44.721Z,43.20
2018-12-06T18:39:14.819Z,41.30
2018-12-06T18:41:44.582Z,43.10
2018-12-06T18:44:14.234Z,41.10
2018-12-06T18:46:43.534Z,42.40
2018-12-06T18:49:12.844Z,40.60
2018-12-06T18:51:42.322Z,41.10
2018-12-06T18:54:13.040Z,37.60
2018-12-06T18:56:44.303Z,35.60
2018-12-06T18:59:14.477Z,37.40
2018-12-06T19:01:44.824Z,39.10
2018-12-06T19:04:15.552Z,40.80
2018-12-06T19:06:45.778Z,37.60
2018-12-06T19:09:15.269Z,38.30
2018-12-06T19:11:45.223Z,37.80
2018-12-06T19:14:21.591Z,37.10
2018-12-06T19:16:46.136Z,36.10
2018-12-06T19:19:15.892Z,38.20
2018-12-06T19:21:45.305Z,39.60
2018-12-06T19:24:14.690Z,36.00
2018-12-06T19:26:44.014Z,36.80
2018-12-06T19:29:13.350Z,37.60
2018-12-06T19:31:42.697Z,38.20
2018-12-06T19:34:12.207Z,39.50
2018-12-06T19:36:41.890Z,40.40
2018-12-06T19:39:11.211Z,39.10
2018-12-06T19:41:40.535Z,40.20
2018-12-06T19:44:10.081Z,40.90
2018-12-06T19:46:39.417Z,41.40
2018-12-06T19:49:08.823Z,40.90
2018-12-06T19:51:38.320Z,39.40
2018-12-06T19:54:07.661Z,40.90
2018-12-06T19:56:37.155Z,38.80
2018-12-06T19:59:06.510Z,39.40
2018-12-06T20:01:36.790Z,38.40
2018-12-06T20:04:06.469Z,38.40
2018-12-06T20:06:35.777Z,36.00
2018-12-06T20:09:09.687Z,35.30
2018-12-06T20:11:39.054Z,35.00
2018-12-06T20:14:08.534Z,35.90
2018-12-06T20:16:41.470Z,35.90
2018-12-06T20:19:10.830Z,34.80
2018-12-06T20:21:40.714Z,35.20
2018-12-06T20:24:10.094Z,34.10
2018-12-06T20:26:39.423Z,33.80
2018-12-06T20:29:08.724Z,37.10
2018-12-06T20:31:38.433Z,35.20
2018-12-06T20:34:08.366Z,33.80
2018-12-06T20:36:37.691Z,33.40
2018-12-06T20:39:08.010Z,31.90
2018-12-06T20:41:38.527Z,34.00
2018-12-06T20:44:08.396Z,35.40
2018-12-06T20:46:38.314Z,31.70
2018-12-06T20:49:07.643Z,33.90
2018-12-06T20:51:37.893Z,34.50
2018-12-06T20:54:07.718Z,34.10
2018-12-06T20:56:37.073Z,32.00
2018-12-06T20:59:06.443Z,30.80
2018-12-06T21:01:35.944Z,29.50
2018-12-06T21:04:05.248Z,27.50
2018-12-06T21:06:34.568Z,27.60
2018-12-06T21:09:05.098Z,25.40
2018-12-06T21:11:35.475Z,26.80
2018-12-06T21:14:05.371Z,23.50
2018-12-06T21:16:34.671Z,23.50
2018-12-06T21:19:04.746Z,26.20
2018-12-06T21:21:34.068Z,28.40
2018-12-06T21:24:03.875Z,27.70
2018-12-06T21:26:33.219Z,25.20
2018-12-06T21:29:02.848Z,25.80
2018-12-06T21:31:32.766Z,26.80
2018-12-06T21:34:02.077Z,28.20
2018-12-06T21:36:32.020Z,28.10
2018-12-06T21:39:02.105Z,26.80
2018-12-06T21:41:32.058Z,27.70
2018-12-06T21:50:02.057Z,24.70
2018-12-06T21:52:37.758Z,22.80
2018-12-06T21:55:07.705Z,21.10
2018-12-06T21:57:37.320Z,20.50
2018-12-06T22:00:08.138Z,19.50
2018-12-06T22:02:37.482Z,19.80
2018-12-06T22:05:07.390Z,19.80
2018-12-06T22:07:36.709Z,22.20
2018-12-06T22:10:08.151Z,22.80
2018-12-06T22:12:37.483Z,20.30
2018-12-06T22:15:07.035Z,20.90
2018-12-06T22:17:36.627Z,15.50
2018-12-06T22:20:06.410Z,16.00
2018-12-06T22:22:35.716Z,16.70
2018-12-06T22:25:06.791Z,16.70
2018-12-06T22:27:36.065Z,18.30
2018-12-06T22:30:07.366Z,16.10
2018-12-06T22:32:36.647Z,18.80
2018-12-06T22:35:06.665Z,14.80
2018-12-06T22:37:37.870Z,15.50
2018-12-06T22:40:08.075Z,16.50
2018-12-06T22:42:37.326Z,18.10
2018-12-06T22:46:15.326Z,16.60
2018-12-06T22:48:44.636Z,17.20
2018-12-06T22:51:13.961Z,14.70
2018-12-06T22:53:43.238Z,14.70
2018-12-06T22:56:12.904Z,14.70
2018-12-06T22:58:42.484Z,14.10
2018-12-06T23:01:13.663Z,14.80
2018-12-06T23:03:42.953Z,16.70
2018-12-06T23:06:12.229Z,14.10
2018-12-06T23:08:41.542Z,12.30
2018-12-06T23:11:10.848Z,11.90
2018-12-06T23:13:40.961Z,11.30
2018-12-06T23:16:10.979Z,11.80
2018-12-06T23:18:41.574Z,13.10
2018-12-06T23:21:10.881Z,13.00
2018-12-06T23:23:40.609Z,13.50
2018-12-06T23:26:10.949Z,14.80
2018-12-06T23:28:40.779Z,10.20
2018-12-06T23:31:10.151Z,11.10
2018-12-06T23:33:39.410Z,13.90
2018-12-06T23:36:08.711Z,12.30
2018-12-06T23:38:38.001Z,10.60
2018-12-06T23:41:07.302Z,11.30
2018-12-06T23:43:36.631Z,10.90
2018-12-06T23:46:05.934Z,9.90
2018-12-06T23:48:35.202Z,9.80
2018-12-06T23:51:15.729Z,9.20
2018-12-06T23:53:45.026Z,8.60
2018-12-06T23:56:14.301Z,8.50
2018-12-06T23:58:43.819Z,8.70
